sensor_id;sensor_type;location;lat;lon;timestamp;temperature;humidity
67901;DHT22;54700;51.796;10.956;2022-09-20T00:02:26;9.10;90.00
67901;DHT22;54700;51.796;10.956;2022-09-20T00:04:53;9.20;90.10
67901;DHT22;54700;51.796;10.956;2022-09-20T00:07:20;9.20;90.20
67901;DHT22;54700;51.796;10.956;2022-09-20T00:09:46;9.30;90.20
67901;DHT22;54700;51.796;10.956;2022-09-20T00:12:14;9.30;90.00
67901;DHT22;54700;51.796;10.956;2022-09-20T00:14:41;9.30;89.60
67901;DHT22;54700;51.796;10.956;2022-09-20T00:17:08;9.40;89.60
67901;DHT22;54700;51.796;10.956;2022-09-20T00:19:34;9.40;89.50
67901;DHT22;54700;51.796;10.956;2022-09-20T00:22:01;9.40;89.40
67901;DHT22;54700;51.796;10.956;2022-09-20T00:24:28;9.40;89.50
67901;DHT22;54700;51.796;10.956;2022-09-20T00:26:54;9.40;90.00
67901;DHT22;54700;51.796;10.956;2022-09-20T00:29:22;9.40;89.60
67901;DHT22;54700;51.796;10.956;2022-09-20T00:31:50;9.40;90.00
67901;DHT22;54700;51.796;10.956;2022-09-20T00:34:17;9.50;90.10
67901;DHT22;54700;51.796;10.956;2022-09-20T00:37:01;9.50;90.30
67901;DHT22;54700;51.796;10.956;2022-09-20T00:39:28;9.40;90.50
67901;DHT22;54700;51.796;10.956;2022-09-20T00:41:55;9.40;90.40
67901;DHT22;54700;51.796;10.956;2022-09-20T00:44:43;9.40;90.40
67901;DHT22;54700;51.796;10.956;2022-09-20T00:47:23;9.30;90.50
67901;DHT22;54700;51.796;10.956;2022-09-20T00:49:57;9.20;90.70
67901;DHT22;54700;51.796;10.956;2022-09-20T00:52:28;9.20;90.90
67901;DHT22;54700;51.796;10.956;2022-09-20T00:54:55;9.20;90.70
67901;DHT22;54700;51.796;10.956;2022-09-20T00:57:24;9.20;91.00
67901;DHT22;54700;51.796;10.956;2022-09-20T00:59:53;9.10;91.00
67901;DHT22;54700;51.796;10.956;2022-09-20T01:02:22;9.10;91.00
67901;DHT22;54700;51.796;10.956;2022-09-20T01:04:53;9.10;91.00
67901;DHT22;54700;51.796;10.956;2022-09-20T01:07:21;9.10;91.10
67901;DHT22;54700;51.796;10.956;2022-09-20T01:09:49;9.00;91.10
67901;DHT22;54700;51.796;10.956;2022-09-20T01:12:17;9.00;90.90
67901;DHT22;54700;51.796;10.956;2022-09-20T01:14:47;9.00;91.00
67901;DHT22;54700;51.796;10.956;2022-09-20T01:17:18;9.00;91.10
67901;DHT22;54700;51.796;10.956;2022-09-20T01:19:48;8.90;91.40
67901;DHT22;54700;51.796;10.956;2022-09-20T01:22:24;8.90;91.50
67901;DHT22;54700;51.796;10.956;2022-09-20T01:24:59;8.90;91.60
67901;DHT22;54700;51.796;10.956;2022-09-20T01:27:39;8.80;91.70
67901;DHT22;54700;51.796;10.956;2022-09-20T01:30:08;8.70;91.80
67901;DHT22;54700;51.796;10.956;2022-09-20T01:32:43;8.70;92.10
67901;DHT22;54700;51.796;10.956;2022-09-20T01:35:18;8.60;92.10
67901;DHT22;54700;51.796;10.956;2022-09-20T01:37:51;8.60;92.20
67901;DHT22;54700;51.796;10.956;2022-09-20T01:40:32;8.50;92.20
67901;DHT22;54700;51.796;10.956;2022-09-20T01:43:08;8.50;92.30
67901;DHT22;54700;51.796;10.956;2022-09-20T01:45:44;8.50;92.50
67901;DHT22;54700;51.796;10.956;2022-09-20T01:48:15;8.50;92.40
67901;DHT22;54700;51.796;10.956;2022-09-20T01:51:15;8.50;92.30
67901;DHT22;54700;51.796;10.956;2022-09-20T01:57:01;8.60;92.20
67901;DHT22;54700;51.796;10.956;2022-09-20T02:00:06;8.60;92.10
67901;DHT22;54700;51.796;10.956;2022-09-20T02:02:48;8.60;91.90
67901;DHT22;54700;51.796;10.956;2022-09-20T02:08:41;8.60;92.10
67901;DHT22;54700;51.796;10.956;2022-09-20T02:11:25;8.60;92.10
67901;DHT22;54700;51.796;10.956;2022-09-20T02:14:04;8.60;92.20
67901;DHT22;54700;51.796;10.956;2022-09-20T02:16:45;8.60;92.30
67901;DHT22;54700;51.796;10.956;2022-09-20T02:19:20;8.60;92.30
67901;DHT22;54700;51.796;10.956;2022-09-20T02:22:19;8.60;92.20
67901;DHT22;54700;51.796;10.956;2022-09-20T02:24:57;8.60;91.90
67901;DHT22;54700;51.796;10.956;2022-09-20T02:27:44;8.60;92.00
67901;DHT22;54700;51.796;10.956;2022-09-20T02:30:26;8.60;91.90
67901;DHT22;54700;51.796;10.956;2022-09-20T02:33:11;8.60;91.80
67901;DHT22;54700;51.796;10.956;2022-09-20T02:35:51;8.60;91.50
67901;DHT22;54700;51.796;10.956;2022-09-20T02:38:35;8.70;91.40
67901;DHT22;54700;51.796;10.956;2022-09-20T02:44:08;8.80;91.30
67901;DHT22;54700;51.796;10.956;2022-09-20T02:46:44;8.90;91.60
67901;DHT22;54700;51.796;10.956;2022-09-20T02:49:20;8.90;90.80
67901;DHT22;54700;51.796;10.956;2022-09-20T02:51:57;9.00;90.80
67901;DHT22;54700;51.796;10.956;2022-09-20T02:54:36;9.00;90.60
67901;DHT22;54700;51.796;10.956;2022-09-20T02:57:14;9.10;90.10
67901;DHT22;54700;51.796;10.956;2022-09-20T02:59:48;9.10;90.30
67901;DHT22;54700;51.796;10.956;2022-09-20T03:02:22;9.00;90.30
67901;DHT22;54700;51.796;10.956;2022-09-20T03:04:59;9.10;90.40
67901;DHT22;54700;51.796;10.956;2022-09-20T03:07:36;9.10;90.30
67901;DHT22;54700;51.796;10.956;2022-09-20T03:10:13;9.10;90.20
67901;DHT22;54700;51.796;10.956;2022-09-20T03:12:48;9.10;90.30
67901;DHT22;54700;51.796;10.956;2022-09-20T03:15:28;9.10;90.30
67901;DHT22;54700;51.796;10.956;2022-09-20T03:18:05;9.10;90.60
67901;DHT22;54700;51.796;10.956;2022-09-20T03:20:40;9.20;90.70
67901;DHT22;54700;51.796;10.956;2022-09-20T03:23:21;9.20;90.30
67901;DHT22;54700;51.796;10.956;2022-09-20T03:26:06;9.20;90.30
67901;DHT22;54700;51.796;10.956;2022-09-20T03:28:56;9.20;90.70
67901;DHT22;54700;51.796;10.956;2022-09-20T03:31:44;9.20;90.70
67901;DHT22;54700;51.796;10.956;2022-09-20T03:34:24;9.20;90.80
67901;DHT22;54700;51.796;10.956;2022-09-20T03:37:14;9.20;90.60
67901;DHT22;54700;51.796;10.956;2022-09-20T03:40:05;9.30;90.70
67901;DHT22;54700;51.796;10.956;2022-09-20T03:42:57;9.30;90.60
67901;DHT22;54700;51.796;10.956;2022-09-20T03:45:39;9.30;90.70
67901;DHT22;54700;51.796;10.956;2022-09-20T03:48:28;9.30;90.60
67901;DHT22;54700;51.796;10.956;2022-09-20T03:51:15;9.30;90.60
67901;DHT22;54700;51.796;10.956;2022-09-20T03:57:15;9.30;90.60
67901;DHT22;54700;51.796;10.956;2022-09-20T04:00:03;9.40;90.20
67901;DHT22;54700;51.796;10.956;2022-09-20T04:05:58;9.40;90.40
67901;DHT22;54700;51.796;10.956;2022-09-20T04:08:39;9.30;90.10
67901;DHT22;54700;51.796;10.956;2022-09-20T04:11:19;9.40;90.40
67901;DHT22;54700;51.796;10.956;2022-09-20T04:13:59;9.30;90.60
67901;DHT22;54700;51.796;10.956;2022-09-20T04:16:39;9.30;90.50
67901;DHT22;54700;51.796;10.956;2022-09-20T04:19:10;9.30;90.50
67901;DHT22;54700;51.796;10.956;2022-09-20T04:21:45;9.30;90.50
67901;DHT22;54700;51.796;10.956;2022-09-20T04:24:20;9.40;90.70
67901;DHT22;54700;51.796;10.956;2022-09-20T04:26:54;9.40;90.50
67901;DHT22;54700;51.796;10.956;2022-09-20T04:29:31;9.40;90.60
67901;DHT22;54700;51.796;10.956;2022-09-20T04:32:08;9.40;90.10
67901;DHT22;54700;51.796;10.956;2022-09-20T04:34:41;9.40;90.30
67901;DHT22;54700;51.796;10.956;2022-09-20T04:37:30;9.40;90.40
67901;DHT22;54700;51.796;10.956;2022-09-20T04:40:03;9.40;90.30
67901;DHT22;54700;51.796;10.956;2022-09-20T04:42:58;9.40;90.30
67901;DHT22;54700;51.796;10.956;2022-09-20T04:46:09;9.40;90.20
67901;DHT22;54700;51.796;10.956;2022-09-20T04:52:15;9.40;90.40
67901;DHT22;54700;51.796;10.956;2022-09-20T04:58:12;9.40;90.50
67901;DHT22;54700;51.796;10.956;2022-09-20T05:14:23;9.40;90.40
67901;DHT22;54700;51.796;10.956;2022-09-20T05:17:25;9.40;90.50
67901;DHT22;54700;51.796;10.956;2022-09-20T05:23:38;9.40;90.90
67901;DHT22;54700;51.796;10.956;2022-09-20T05:27:01;9.40;91.00
67901;DHT22;54700;51.796;10.956;2022-09-20T05:29:46;9.50;91.10
67901;DHT22;54700;51.796;10.956;2022-09-20T05:32:21;9.50;90.70
67901;DHT22;54700;51.796;10.956;2022-09-20T05:34:59;9.50;91.00
67901;DHT22;54700;51.796;10.956;2022-09-20T05:37:42;9.50;90.80
67901;DHT22;54700;51.796;10.956;2022-09-20T05:40:24;9.50;90.80
67901;DHT22;54700;51.796;10.956;2022-09-20T05:43:01;9.50;90.70
67901;DHT22;54700;51.796;10.956;2022-09-20T05:45:57;9.50;91.20
67901;DHT22;54700;51.796;10.956;2022-09-20T05:48:42;9.60;91.00
67901;DHT22;54700;51.796;10.956;2022-09-20T05:58:16;9.60;90.60
67901;DHT22;54700;51.796;10.956;2022-09-20T06:08:24;9.70;90.80
67901;DHT22;54700;51.796;10.956;2022-09-20T06:11:29;9.70;91.00
67901;DHT22;54700;51.796;10.956;2022-09-20T06:14:15;9.70;91.00
67901;DHT22;54700;51.796;10.956;2022-09-20T06:16:54;9.70;91.10
67901;DHT22;54700;51.796;10.956;2022-09-20T06:19:38;9.70;91.30
67901;DHT22;54700;51.796;10.956;2022-09-20T06:22:11;9.70;91.20
67901;DHT22;54700;51.796;10.956;2022-09-20T06:24:46;9.80;91.30
67901;DHT22;54700;51.796;10.956;2022-09-20T06:27:17;9.80;91.00
67901;DHT22;54700;51.796;10.956;2022-09-20T06:30:00;9.80;91.00
67901;DHT22;54700;51.796;10.956;2022-09-20T06:32:34;9.80;90.80
67901;DHT22;54700;51.796;10.956;2022-09-20T06:35:01;9.80;90.90
67901;DHT22;54700;51.796;10.956;2022-09-20T06:37:40;9.90;91.00
67901;DHT22;54700;51.796;10.956;2022-09-20T06:40:37;9.90;90.80
67901;DHT22;54700;51.796;10.956;2022-09-20T06:43:39;9.90;90.80
67901;DHT22;54700;51.796;10.956;2022-09-20T06:46:11;9.90;90.80
67901;DHT22;54700;51.796;10.956;2022-09-20T06:48:39;9.90;90.90
67901;DHT22;54700;51.796;10.956;2022-09-20T06:51:07;10.00;90.90
67901;DHT22;54700;51.796;10.956;2022-09-20T06:53:38;10.00;91.00
67901;DHT22;54700;51.796;10.956;2022-09-20T06:56:10;10.10;90.50
67901;DHT22;54700;51.796;10.956;2022-09-20T06:58:46;10.20;90.60
67901;DHT22;54700;51.796;10.956;2022-09-20T07:01:15;10.20;90.30
67901;DHT22;54700;51.796;10.956;2022-09-20T07:03:42;10.20;88.80
67901;DHT22;54700;51.796;10.956;2022-09-20T07:06:12;10.30;88.50
67901;DHT22;54700;51.796;10.956;2022-09-20T07:08:42;10.30;89.10
67901;DHT22;54700;51.796;10.956;2022-09-20T07:11:12;10.30;89.00
67901;DHT22;54700;51.796;10.956;2022-09-20T07:13:41;10.40;88.70
67901;DHT22;54700;51.796;10.956;2022-09-20T07:16:09;10.40;88.40
67901;DHT22;54700;51.796;10.956;2022-09-20T07:18:40;10.40;88.80
67901;DHT22;54700;51.796;10.956;2022-09-20T07:21:07;10.50;87.00
67901;DHT22;54700;51.796;10.956;2022-09-20T07:23:39;10.50;88.20
67901;DHT22;54700;51.796;10.956;2022-09-20T07:26:14;10.50;87.50
67901;DHT22;54700;51.796;10.956;2022-09-20T07:28:55;10.50;88.20
67901;DHT22;54700;51.796;10.956;2022-09-20T07:31:25;10.60;88.00
67901;DHT22;54700;51.796;10.956;2022-09-20T07:34:06;10.70;88.10
67901;DHT22;54700;51.796;10.956;2022-09-20T07:40:24;10.80;88.10
67901;DHT22;54700;51.796;10.956;2022-09-20T07:43:27;10.90;87.80
67901;DHT22;54700;51.796;10.956;2022-09-20T07:52:56;11.10;85.40
67901;DHT22;54700;51.796;10.956;2022-09-20T07:59:10;11.00;85.30
67901;DHT22;54700;51.796;10.956;2022-09-20T08:05:19;11.00;84.70
67901;DHT22;54700;51.796;10.956;2022-09-20T08:07:56;10.90;85.80
67901;DHT22;54700;51.796;10.956;2022-09-20T08:10:39;10.90;87.30
67901;DHT22;54700;51.796;10.956;2022-09-20T08:13:14;10.90;85.30
67901;DHT22;54700;51.796;10.956;2022-09-20T08:16:11;11.00;85.60
67901;DHT22;54700;51.796;10.956;2022-09-20T08:18:43;11.10;84.20
67901;DHT22;54700;51.796;10.956;2022-09-20T08:21:14;11.10;84.20
67901;DHT22;54700;51.796;10.956;2022-09-20T08:23:42;11.10;83.60
67901;DHT22;54700;51.796;10.956;2022-09-20T08:26:12;11.10;84.10
67901;DHT22;54700;51.796;10.956;2022-09-20T08:28:41;11.10;83.40
67901;DHT22;54700;51.796;10.956;2022-09-20T08:31:09;11.00;83.80
67901;DHT22;54700;51.796;10.956;2022-09-20T08:33:38;11.10;83.20
67901;DHT22;54700;51.796;10.956;2022-09-20T08:36:07;11.10;81.40
67901;DHT22;54700;51.796;10.956;2022-09-20T08:38:41;11.10;81.50
67901;DHT22;54700;51.796;10.956;2022-09-20T08:41:11;11.20;81.70
67901;DHT22;54700;51.796;10.956;2022-09-20T08:43:42;11.20;83.60
67901;DHT22;54700;51.796;10.956;2022-09-20T08:46:15;11.20;84.70
67901;DHT22;54700;51.796;10.956;2022-09-20T08:48:45;11.30;84.80
67901;DHT22;54700;51.796;10.956;2022-09-20T08:51:16;11.20;83.70
67901;DHT22;54700;51.796;10.956;2022-09-20T08:53:52;11.20;84.80
67901;DHT22;54700;51.796;10.956;2022-09-20T08:56:33;11.20;84.60
67901;DHT22;54700;51.796;10.956;2022-09-20T08:59:02;11.20;83.50
67901;DHT22;54700;51.796;10.956;2022-09-20T09:01:32;11.30;83.30
67901;DHT22;54700;51.796;10.956;2022-09-20T09:04:16;11.40;82.40
67901;DHT22;54700;51.796;10.956;2022-09-20T09:06:50;11.40;81.80
67901;DHT22;54700;51.796;10.956;2022-09-20T09:09:22;11.40;80.10
67901;DHT22;54700;51.796;10.956;2022-09-20T09:11:52;11.40;78.80
67901;DHT22;54700;51.796;10.956;2022-09-20T09:14:24;11.40;78.80
67901;DHT22;54700;51.796;10.956;2022-09-20T09:17:11;11.40;80.10
67901;DHT22;54700;51.796;10.956;2022-09-20T09:19:46;11.50;79.60
67901;DHT22;54700;51.796;10.956;2022-09-20T09:22:19;11.50;80.30
67901;DHT22;54700;51.796;10.956;2022-09-20T09:25:06;11.60;79.50
67901;DHT22;54700;51.796;10.956;2022-09-20T09:27:51;11.60;80.40
67901;DHT22;54700;51.796;10.956;2022-09-20T09:30:30;11.60;80.80
67901;DHT22;54700;51.796;10.956;2022-09-20T09:33:21;11.60;81.60
67901;DHT22;54700;51.796;10.956;2022-09-20T09:35:52;11.60;80.10
67901;DHT22;54700;51.796;10.956;2022-09-20T09:55:58;12.00;77.80
67901;DHT22;54700;51.796;10.956;2022-09-20T10:05:34;12.00;78.40
67901;DHT22;54700;51.796;10.956;2022-09-20T10:08:42;12.10;76.50
67901;DHT22;54700;51.796;10.956;2022-09-20T10:11:29;12.10;76.10
67901;DHT22;54700;51.796;10.956;2022-09-20T10:14:14;12.10;75.70
67901;DHT22;54700;51.796;10.956;2022-09-20T10:16:57;12.10;76.20
67901;DHT22;54700;51.796;10.956;2022-09-20T10:19:38;12.10;75.60
67901;DHT22;54700;51.796;10.956;2022-09-20T10:22:18;12.10;77.10
67901;DHT22;54700;51.796;10.956;2022-09-20T10:25:05;12.10;75.60
67901;DHT22;54700;51.796;10.956;2022-09-20T10:27:45;12.10;75.10
67901;DHT22;54700;51.796;10.956;2022-09-20T10:30:35;12.20;76.30
67901;DHT22;54700;51.796;10.956;2022-09-20T10:36:24;12.40;76.60
67901;DHT22;54700;51.796;10.956;2022-09-20T10:39:09;12.30;74.90
67901;DHT22;54700;51.796;10.956;2022-09-20T10:41:53;12.30;74.80
67901;DHT22;54700;51.796;10.956;2022-09-20T10:44:59;12.40;76.10
67901;DHT22;54700;51.796;10.956;2022-09-20T10:47:39;12.60;76.30
67901;DHT22;54700;51.796;10.956;2022-09-20T10:53:30;12.60;74.90
67901;DHT22;54700;51.796;10.956;2022-09-20T10:56:16;12.60;74.70
67901;DHT22;54700;51.796;10.956;2022-09-20T11:02:03;12.70;76.40
67901;DHT22;54700;51.796;10.956;2022-09-20T11:07:53;13.00;76.40
67901;DHT22;54700;51.796;10.956;2022-09-20T11:10:37;13.20;73.60
67901;DHT22;54700;51.796;10.956;2022-09-20T11:13:12;13.40;73.60
67901;DHT22;54700;51.796;10.956;2022-09-20T11:15:52;13.40;72.00
67901;DHT22;54700;51.796;10.956;2022-09-20T11:18:28;13.40;72.90
67901;DHT22;54700;51.796;10.956;2022-09-20T11:21:07;13.30;74.50
67901;DHT22;54700;51.796;10.956;2022-09-20T11:23:52;13.20;73.80
67901;DHT22;54700;51.796;10.956;2022-09-20T11:26:30;13.10;72.80
67901;DHT22;54700;51.796;10.956;2022-09-20T11:29:17;12.90;73.10
67901;DHT22;54700;51.796;10.956;2022-09-20T11:31:51;12.70;74.00
67901;DHT22;54700;51.796;10.956;2022-09-20T11:34:27;12.60;74.90
67901;DHT22;54700;51.796;10.956;2022-09-20T11:36:59;12.60;73.80
67901;DHT22;54700;51.796;10.956;2022-09-20T11:39:34;12.50;76.00
67901;DHT22;54700;51.796;10.956;2022-09-20T11:42:15;12.30;76.10
67901;DHT22;54700;51.796;10.956;2022-09-20T11:44:46;12.10;75.80
67901;DHT22;54700;51.796;10.956;2022-09-20T11:47:16;11.90;77.80
67901;DHT22;54700;51.796;10.956;2022-09-20T11:49:52;11.80;77.20
67901;DHT22;54700;51.796;10.956;2022-09-20T11:52:35;11.70;78.40
67901;DHT22;54700;51.796;10.956;2022-09-20T11:55:26;11.80;77.80
67901;DHT22;54700;51.796;10.956;2022-09-20T11:58:07;11.90;77.60
67901;DHT22;54700;51.796;10.956;2022-09-20T12:00:37;12.00;78.30
67901;DHT22;54700;51.796;10.956;2022-09-20T12:03:16;12.20;78.30
67901;DHT22;54700;51.796;10.956;2022-09-20T12:05:54;12.30;76.20
67901;DHT22;54700;51.796;10.956;2022-09-20T12:08:24;12.50;76.00
67901;DHT22;54700;51.796;10.956;2022-09-20T12:10:57;12.50;74.60
67901;DHT22;54700;51.796;10.956;2022-09-20T12:13:28;12.40;74.70
67901;DHT22;54700;51.796;10.956;2022-09-20T12:15:58;12.40;73.40
67901;DHT22;54700;51.796;10.956;2022-09-20T12:18:35;12.40;71.30
67901;DHT22;54700;51.796;10.956;2022-09-20T12:21:12;12.40;72.10
67901;DHT22;54700;51.796;10.956;2022-09-20T12:26:47;12.50;72.10
67901;DHT22;54700;51.796;10.956;2022-09-20T12:38:22;13.00;68.50
67901;DHT22;54700;51.796;10.956;2022-09-20T12:41:04;13.10;70.20
67901;DHT22;54700;51.796;10.956;2022-09-20T12:46:51;13.10;67.30
67901;DHT22;54700;51.796;10.956;2022-09-20T12:49:31;13.00;65.60
67901;DHT22;54700;51.796;10.956;2022-09-20T12:52:26;13.10;66.50
67901;DHT22;54700;51.796;10.956;2022-09-20T12:55:25;13.10;66.90
67901;DHT22;54700;51.796;10.956;2022-09-20T12:57:56;13.10;67.30
67901;DHT22;54700;51.796;10.956;2022-09-20T13:00:30;13.10;68.60
67901;DHT22;54700;51.796;10.956;2022-09-20T13:03:09;13.20;66.90
67901;DHT22;54700;51.796;10.956;2022-09-20T13:05:41;13.10;67.80
67901;DHT22;54700;51.796;10.956;2022-09-20T13:08:22;13.00;67.50
67901;DHT22;54700;51.796;10.956;2022-09-20T13:10:58;12.90;65.70
67901;DHT22;54700;51.796;10.956;2022-09-20T13:13:29;12.90;66.90
67901;DHT22;54700;51.796;10.956;2022-09-20T13:16:01;13.00;66.40
67901;DHT22;54700;51.796;10.956;2022-09-20T13:18:34;13.00;66.30
67901;DHT22;54700;51.796;10.956;2022-09-20T13:21:05;13.10;67.30
67901;DHT22;54700;51.796;10.956;2022-09-20T13:23:43;13.20;67.80
67901;DHT22;54700;51.796;10.956;2022-09-20T13:26:16;13.30;67.40
67901;DHT22;54700;51.796;10.956;2022-09-20T13:28:50;13.50;66.90
67901;DHT22;54700;51.796;10.956;2022-09-20T13:31:25;13.60;64.10
67901;DHT22;54700;51.796;10.956;2022-09-20T13:36:39;13.70;64.80
67901;DHT22;54700;51.796;10.956;2022-09-20T13:39:07;13.90;65.20
67901;DHT22;54700;51.796;10.956;2022-09-20T13:41:33;13.90;64.60
67901;DHT22;54700;51.796;10.956;2022-09-20T13:44:02;14.00;64.10
67901;DHT22;54700;51.796;10.956;2022-09-20T13:46:31;13.80;63.90
67901;DHT22;54700;51.796;10.956;2022-09-20T13:49:08;13.70;64.70
67901;DHT22;54700;51.796;10.956;2022-09-20T13:51:44;13.50;65.90
67901;DHT22;54700;51.796;10.956;2022-09-20T13:54:16;13.30;65.40
67901;DHT22;54700;51.796;10.956;2022-09-20T13:56:45;13.20;64.50
67901;DHT22;54700;51.796;10.956;2022-09-20T13:59:13;13.10;63.60
67901;DHT22;54700;51.796;10.956;2022-09-20T14:01:51;13.10;63.50
67901;DHT22;54700;51.796;10.956;2022-09-20T14:04:20;13.10;63.10
67901;DHT22;54700;51.796;10.956;2022-09-20T14:06:51;13.10;64.30
67901;DHT22;54700;51.796;10.956;2022-09-20T14:09:22;13.10;65.90
67901;DHT22;54700;51.796;10.956;2022-09-20T14:11:53;13.00;65.50
67901;DHT22;54700;51.796;10.956;2022-09-20T14:14:22;13.00;66.10
67901;DHT22;54700;51.796;10.956;2022-09-20T14:16:52;13.10;66.20
67901;DHT22;54700;51.796;10.956;2022-09-20T14:19:24;13.10;66.60
67901;DHT22;54700;51.796;10.956;2022-09-20T14:21:54;13.10;67.10
67901;DHT22;54700;51.796;10.956;2022-09-20T14:24:23;13.10;66.50
67901;DHT22;54700;51.796;10.956;2022-09-20T14:27:01;13.10;65.30
67901;DHT22;54700;51.796;10.956;2022-09-20T14:29:39;13.10;65.30
67901;DHT22;54700;51.796;10.956;2022-09-20T14:32:22;13.10;63.90
67901;DHT22;54700;51.796;10.956;2022-09-20T14:35:03;13.20;63.30
67901;DHT22;54700;51.796;10.956;2022-09-20T14:37:33;13.30;61.90
67901;DHT22;54700;51.796;10.956;2022-09-20T14:40:16;13.40;63.40
67901;DHT22;54700;51.796;10.956;2022-09-20T14:42:46;13.50;63.90
67901;DHT22;54700;51.796;10.956;2022-09-20T14:45:19;13.50;63.90
67901;DHT22;54700;51.796;10.956;2022-09-20T14:47:53;13.60;62.20
67901;DHT22;54700;51.796;10.956;2022-09-20T14:50:29;13.60;62.40
67901;DHT22;54700;51.796;10.956;2022-09-20T14:53:01;13.60;63.10
67901;DHT22;54700;51.796;10.956;2022-09-20T14:55:54;13.70;63.60
67901;DHT22;54700;51.796;10.956;2022-09-20T14:58:26;13.80;61.90
67901;DHT22;54700;51.796;10.956;2022-09-20T15:00:53;13.80;60.80
67901;DHT22;54700;51.796;10.956;2022-09-20T15:03:27;13.90;61.50
67901;DHT22;54700;51.796;10.956;2022-09-20T15:05:56;14.10;61.50
67901;DHT22;54700;51.796;10.956;2022-09-20T15:08:23;14.20;59.10
67901;DHT22;54700;51.796;10.956;2022-09-20T15:10:50;14.20;57.60
67901;DHT22;54700;51.796;10.956;2022-09-20T15:13:16;14.20;55.60
67901;DHT22;54700;51.796;10.956;2022-09-20T15:15:44;14.20;54.90
67901;DHT22;54700;51.796;10.956;2022-09-20T15:18:17;14.20;54.70
67901;DHT22;54700;51.796;10.956;2022-09-20T15:20:47;14.10;56.30
67901;DHT22;54700;51.796;10.956;2022-09-20T15:23:14;14.10;57.70
67901;DHT22;54700;51.796;10.956;2022-09-20T15:25:41;14.00;57.50
67901;DHT22;54700;51.796;10.956;2022-09-20T15:28:10;13.90;57.80
67901;DHT22;54700;51.796;10.956;2022-09-20T15:30:41;13.90;58.60
67901;DHT22;54700;51.796;10.956;2022-09-20T15:33:08;13.90;58.90
67901;DHT22;54700;51.796;10.956;2022-09-20T15:35:35;13.90;60.00
67901;DHT22;54700;51.796;10.956;2022-09-20T15:38:05;13.90;60.20
67901;DHT22;54700;51.796;10.956;2022-09-20T15:40:35;13.90;60.10
67901;DHT22;54700;51.796;10.956;2022-09-20T15:43:04;13.80;60.80
67901;DHT22;54700;51.796;10.956;2022-09-20T15:45:31;13.70;60.80
67901;DHT22;54700;51.796;10.956;2022-09-20T15:47:59;13.60;61.20
67901;DHT22;54700;51.796;10.956;2022-09-20T15:50:27;13.60;61.70
67901;DHT22;54700;51.796;10.956;2022-09-20T15:52:56;13.50;61.90
67901;DHT22;54700;51.796;10.956;2022-09-20T15:55:26;13.50;62.30
67901;DHT22;54700;51.796;10.956;2022-09-20T15:57:57;13.50;62.90
67901;DHT22;54700;51.796;10.956;2022-09-20T16:00:28;13.50;62.70
67901;DHT22;54700;51.796;10.956;2022-09-20T16:02:55;13.50;62.50
67901;DHT22;54700;51.796;10.956;2022-09-20T16:05:22;13.50;61.90
67901;DHT22;54700;51.796;10.956;2022-09-20T16:07:49;13.40;61.20
67901;DHT22;54700;51.796;10.956;2022-09-20T16:10:15;13.30;62.00
67901;DHT22;54700;51.796;10.956;2022-09-20T16:12:47;13.30;61.30
67901;DHT22;54700;51.796;10.956;2022-09-20T16:15:15;13.20;62.30
67901;DHT22;54700;51.796;10.956;2022-09-20T16:17:42;13.20;62.40
67901;DHT22;54700;51.796;10.956;2022-09-20T16:20:27;13.20;63.30
67901;DHT22;54700;51.796;10.956;2022-09-20T16:22:53;13.10;62.20
67901;DHT22;54700;51.796;10.956;2022-09-20T16:25:20;13.10;62.70
67901;DHT22;54700;51.796;10.956;2022-09-20T16:27:51;13.00;62.80
67901;DHT22;54700;51.796;10.956;2022-09-20T16:30:17;13.00;63.40
67901;DHT22;54700;51.796;10.956;2022-09-20T16:32:44;12.90;64.00
67901;DHT22;54700;51.796;10.956;2022-09-20T16:35:11;12.80;64.40
67901;DHT22;54700;51.796;10.956;2022-09-20T16:37:44;12.70;65.10
67901;DHT22;54700;51.796;10.956;2022-09-20T16:40:13;12.70;65.20
67901;DHT22;54700;51.796;10.956;2022-09-20T16:42:40;12.60;65.40
67901;DHT22;54700;51.796;10.956;2022-09-20T16:45:13;12.60;66.50
67901;DHT22;54700;51.796;10.956;2022-09-20T16:47:40;12.50;66.30
67901;DHT22;54700;51.796;10.956;2022-09-20T16:50:07;12.50;66.70
67901;DHT22;54700;51.796;10.956;2022-09-20T16:52:36;12.40;67.20
67901;DHT22;54700;51.796;10.956;2022-09-20T16:55:03;12.40;67.30
67901;DHT22;54700;51.796;10.956;2022-09-20T16:57:31;12.30;67.70
67901;DHT22;54700;51.796;10.956;2022-09-20T17:00:01;12.20;68.00
67901;DHT22;54700;51.796;10.956;2022-09-20T17:02:30;12.20;68.10
67901;DHT22;54700;51.796;10.956;2022-09-20T17:04:57;12.10;68.40
67901;DHT22;54700;51.796;10.956;2022-09-20T17:07:24;12.00;68.50
67901;DHT22;54700;51.796;10.956;2022-09-20T17:09:51;12.00;68.00
67901;DHT22;54700;51.796;10.956;2022-09-20T17:12:25;11.90;67.50
67901;DHT22;54700;51.796;10.956;2022-09-20T17:14:55;11.80;67.80
67901;DHT22;54700;51.796;10.956;2022-09-20T17:17:25;11.80;67.90
67901;DHT22;54700;51.796;10.956;2022-09-20T17:19:53;11.70;68.00
67901;DHT22;54700;51.796;10.956;2022-09-20T17:22:20;11.60;68.20
67901;DHT22;54700;51.796;10.956;2022-09-20T17:24:46;11.60;68.40
67901;DHT22;54700;51.796;10.956;2022-09-20T17:27:14;11.60;68.50
67901;DHT22;54700;51.796;10.956;2022-09-20T17:29:40;11.50;69.00
67901;DHT22;54700;51.796;10.956;2022-09-20T17:32:09;11.50;69.30
67901;DHT22;54700;51.796;10.956;2022-09-20T17:34:35;11.40;69.60
67901;DHT22;54700;51.796;10.956;2022-09-20T17:37:03;11.50;70.00
67901;DHT22;54700;51.796;10.956;2022-09-20T17:39:30;11.40;70.30
67901;DHT22;54700;51.796;10.956;2022-09-20T17:41:57;11.40;70.20
67901;DHT22;54700;51.796;10.956;2022-09-20T17:44:23;11.40;70.30
67901;DHT22;54700;51.796;10.956;2022-09-20T17:46:50;11.40;70.50
67901;DHT22;54700;51.796;10.956;2022-09-20T17:49:19;11.40;71.00
67901;DHT22;54700;51.796;10.956;2022-09-20T17:51:47;11.40;71.00
67901;DHT22;54700;51.796;10.956;2022-09-20T17:54:17;11.30;71.30
67901;DHT22;54700;51.796;10.956;2022-09-20T17:56:45;11.30;71.60
67901;DHT22;54700;51.796;10.956;2022-09-20T17:59:14;11.30;72.00
67901;DHT22;54700;51.796;10.956;2022-09-20T18:01:41;11.20;72.30
67901;DHT22;54700;51.796;10.956;2022-09-20T18:04:09;11.20;72.60
67901;DHT22;54700;51.796;10.956;2022-09-20T18:06:37;11.20;73.00
67901;DHT22;54700;51.796;10.956;2022-09-20T18:09:07;11.10;73.20
67901;DHT22;54700;51.796;10.956;2022-09-20T18:11:37;11.10;73.50
67901;DHT22;54700;51.796;10.956;2022-09-20T18:14:05;11.10;73.80
67901;DHT22;54700;51.796;10.956;2022-09-20T18:16:34;11.10;74.00
67901;DHT22;54700;51.796;10.956;2022-09-20T18:19:01;11.00;74.10
67901;DHT22;54700;51.796;10.956;2022-09-20T18:21:30;11.00;74.20